createdAt,value
2022-08-25T00:09:59.004Z,22.62
2022-08-25T00:39:14.007Z,22.67
2022-08-25T01:08:32.288Z,22.21
2022-08-25T01:37:01.861Z,22.1
2022-08-25T02:06:00.081Z,21.47
2022-08-25T02:34:54.413Z,20.42
2022-08-25T03:03:56.838Z,20.01
2022-08-25T03:32:52.430Z,19.76
2022-08-25T04:01:56.050Z,19.31
2022-08-25T04:30:46.389Z,19.71
2022-08-25T04:59:11.231Z,18.96
2022-08-25T05:28:10.856Z,19.5
2022-08-25T05:57:20.178Z,20
2022-08-25T06:26:25.847Z,21.05
2022-08-25T06:55:31.796Z,22.15
2022-08-25T07:24:47.837Z,23.45
2022-08-25T07:54:05.232Z,24.87
2022-08-25T08:23:25.659Z,26.11
2022-08-25T08:52:44.259Z,27.32
2022-08-25T09:22:34.165Z,28.65
2022-08-25T09:50:48.509Z,29.51
2022-08-25T10:19:30.474Z,30
2022-08-25T10:48:29.998Z,30.93
2022-08-25T11:17:52.098Z,31.84
2022-08-25T11:47:19.125Z,33.34
2022-08-25T12:15:51.357Z,34.12
2022-08-25T12:44:32.084Z,33.8
2022-08-25T13:13:52.054Z,34.74
2022-08-25T13:43:10.899Z,34.97
2022-08-25T14:13:01.025Z,34.5
2022-08-25T14:41:54.151Z,34.31
2022-08-25T15:10:36.729Z,34.69
2022-08-25T15:39:51.196Z,35.12
2022-08-25T16:08:53.953Z,35.87
2022-08-25T16:37:31.485Z,35.12
2022-08-25T17:06:29.570Z,33.95
2022-08-25T17:35:37.958Z,33.06
2022-08-25T18:04:50.489Z,32.17
2022-08-25T18:33:52.497Z,30.83
2022-08-25T19:02:47.297Z,29.48
2022-08-25T19:31:19.332Z,28.83
2022-08-25T19:59:53.032Z,27.64
2022-08-25T20:28:19.423Z,26.93
2022-08-25T20:56:59.953Z,26.32
2022-08-25T21:25:38.636Z,25.51
2022-08-25T21:54:35.533Z,24.97
2022-08-25T22:23:45.093Z,24.26
2022-08-25T22:52:33.919Z,23.61
2022-08-25T23:20:58.379Z,23.62
2022-08-25T23:50:07.368Z,23.35
